createdAt,value
2019-04-06T00:00:28.098Z,1001.25
2019-04-06T00:01:28.089Z,1001.24
2019-04-06T00:02:28.099Z,1001.24
2019-04-06T00:03:28.069Z,1001.22
2019-04-06T00:04:28.055Z,1001.23
2019-04-06T00:05:28.043Z,1001.26
2019-04-06T00:06:28.051Z,1001.26
2019-04-06T00:07:28.084Z,1001.21
2019-04-06T00:08:28.019Z,1001.21
2019-04-06T00:09:28.005Z,1001.19
2019-04-06T00:10:27.995Z,1001.18
2019-04-06T00:11:27.989Z,1001.22
2019-04-06T00:12:28.039Z,1001.20
2019-04-06T00:13:27.961Z,1001.17
2019-04-06T00:14:27.948Z,1001.17
2019-04-06T00:15:27.964Z,1001.15
2019-04-06T00:16:27.927Z,1001.15
2019-04-06T00:17:27.940Z,1001.17
2019-04-06T00:18:27.907Z,1001.22
2019-04-06T00:19:27.895Z,1001.19
2019-04-06T00:20:27.969Z,1001.23
2019-04-06T00:21:27.875Z,1001.22
2019-04-06T00:22:27.864Z,1001.20
2019-04-06T00:23:27.876Z,1001.19
2019-04-06T00:24:27.866Z,1001.18
2019-04-06T00:25:27.832Z,1001.21
2019-04-06T00:26:27.821Z,1001.17
2019-04-06T00:27:27.868Z,1001.20
2019-04-06T00:28:27.818Z,1001.20
2019-04-06T00:29:27.817Z,1001.19
2019-04-06T00:30:27.788Z,1001.22
2019-04-06T00:31:27.837Z,1001.20
2019-04-06T00:32:27.761Z,1001.19
2019-04-06T00:33:27.778Z,1001.19
2019-04-06T00:34:27.744Z,1001.15
2019-04-06T00:35:27.725Z,1001.13
2019-04-06T00:36:27.717Z,1001.07
2019-04-06T00:37:27.703Z,1001.05
2019-04-06T00:38:27.711Z,1001.06
2019-04-06T00:39:27.682Z,1001.07
2019-04-06T00:40:27.674Z,1001.08
2019-04-06T00:41:27.665Z,1001.00
2019-04-06T00:42:27.652Z,1001.03
2019-04-06T00:43:27.643Z,1001.05
2019-04-06T00:44:27.645Z,1001.09
2019-04-06T00:45:27.622Z,1001.06
2019-04-06T00:46:27.607Z,1001.06
2019-04-06T00:47:27.598Z,1001.06
2019-04-06T00:48:27.605Z,1001.08
2019-04-06T00:49:27.613Z,1001.07
2019-04-06T00:50:27.564Z,1001.00
2019-04-06T00:51:27.555Z,1001.00
2019-04-06T00:52:27.556Z,1001.01
2019-04-06T00:53:27.533Z,1000.98
2019-04-06T00:54:28.476Z,1000.96
2019-04-06T00:55:27.520Z,1001.04
2019-04-06T00:56:27.508Z,1000.98
2019-04-06T00:57:27.493Z,1000.95
2019-04-06T00:58:27.483Z,1000.98
2019-04-06T00:59:27.491Z,1000.94
2019-04-06T01:00:27.464Z,1000.98
2019-04-06T01:01:27.444Z,1000.97
2019-04-06T01:02:27.523Z,1000.91
2019-04-06T01:03:27.442Z,1000.97
2019-04-06T01:04:27.520Z,1000.99
2019-04-06T01:05:27.404Z,1001.03
2019-04-06T01:06:27.411Z,1001.00
2019-04-06T01:07:27.381Z,1001.02
2019-04-06T01:08:27.371Z,1001.02
2019-04-06T01:09:27.406Z,1001.01
2019-04-06T01:10:27.352Z,1001.09
2019-04-06T01:11:27.352Z,1000.98
2019-04-06T01:12:27.333Z,1001.00
2019-04-06T01:13:27.324Z,1000.96
2019-04-06T01:14:27.332Z,1000.94
2019-04-06T01:15:27.294Z,1001.04
2019-04-06T01:16:27.370Z,1000.96
2019-04-06T01:17:27.279Z,1000.96
2019-04-06T01:18:27.268Z,1000.92
2019-04-06T01:19:27.290Z,1000.95
2019-04-06T01:20:27.243Z,1000.98
2019-04-06T01:21:27.230Z,1000.96
2019-04-06T01:22:27.241Z,1000.92
2019-04-06T01:23:27.267Z,1000.95
2019-04-06T01:24:27.220Z,1000.89
2019-04-06T01:25:27.192Z,1000.93
2019-04-06T01:26:27.182Z,1000.97
2019-04-06T01:27:27.168Z,1000.95
2019-04-06T01:28:27.166Z,1000.98
2019-04-06T01:29:27.195Z,1000.90
2019-04-06T01:30:27.135Z,1000.99
2019-04-06T01:31:27.127Z,1000.98
2019-04-06T01:32:27.149Z,1000.97
2019-04-06T01:33:27.103Z,1000.95
2019-04-06T01:34:27.093Z,1000.97
2019-04-06T01:35:27.101Z,1000.98
2019-04-06T01:36:27.106Z,1000.96
2019-04-06T01:37:27.063Z,1000.95
2019-04-06T01:38:27.049Z,1001.03
2019-04-06T01:39:27.090Z,1000.98
2019-04-06T01:40:27.048Z,1000.98
2019-04-06T01:41:27.105Z,1000.97
2019-04-06T01:42:27.007Z,1000.93
2019-04-06T01:43:26.997Z,1000.95
2019-04-06T01:44:26.984Z,1000.94
2019-04-06T01:45:27.030Z,1000.95
2019-04-06T01:46:27.018Z,1000.92
2019-04-06T01:47:26.963Z,1000.92
2019-04-06T01:48:26.946Z,1000.88
2019-04-06T01:49:26.928Z,1000.87
2019-04-06T01:50:27.070Z,1000.91
2019-04-06T01:51:26.923Z,1000.82
2019-04-06T01:52:26.922Z,1000.89
2019-04-06T01:53:26.887Z,1000.90
2019-04-06T01:54:26.881Z,1000.89
2019-04-06T01:55:26.886Z,1000.85
2019-04-06T01:56:26.944Z,1000.86
2019-04-06T01:57:26.853Z,1000.85
2019-04-06T01:58:26.841Z,1000.86
2019-04-06T01:59:26.824Z,1000.76
2019-04-06T02:00:26.836Z,1000.87
2019-04-06T02:01:26.801Z,1000.84
2019-04-06T02:02:26.790Z,1000.80
2019-04-06T02:03:26.817Z,1000.87
2019-04-06T02:04:26.871Z,1000.83
2019-04-06T02:05:26.810Z,1000.86
2019-04-06T02:06:26.746Z,1000.87
2019-04-06T02:07:26.737Z,1000.87
2019-04-06T02:08:26.729Z,1000.83
2019-04-06T02:09:26.761Z,1000.85
2019-04-06T02:10:26.722Z,1000.78
2019-04-06T02:11:26.694Z,1000.74
2019-04-06T02:12:26.682Z,1000.76
2019-04-06T02:13:26.677Z,1000.75
2019-04-06T02:14:26.661Z,1000.75
2019-04-06T02:15:26.673Z,1000.73
2019-04-06T02:16:26.641Z,1000.75
2019-04-06T02:17:26.629Z,1000.72
2019-04-06T02:18:26.623Z,1000.70
2019-04-06T02:19:26.608Z,1000.69
2019-04-06T02:20:26.616Z,1000.65
2019-04-06T02:21:26.586Z,1000.64
2019-04-06T02:22:26.576Z,1000.71
2019-04-06T02:23:26.577Z,1000.71
2019-04-06T02:24:26.561Z,1000.70
2019-04-06T02:25:26.566Z,1000.69
2019-04-06T02:26:30.943Z,1000.72
2019-04-06T02:27:26.526Z,1000.71
2019-04-06T02:28:26.512Z,1000.67
2019-04-06T02:29:26.511Z,1000.68
2019-04-06T02:30:26.698Z,1000.68
2019-04-06T02:31:26.515Z,1000.69
2019-04-06T02:32:26.471Z,1000.66
2019-04-06T02:33:26.459Z,1000.67
2019-04-06T02:34:26.499Z,1000.71
2019-04-06T02:35:26.481Z,1000.70
2019-04-06T02:36:26.426Z,1000.73
2019-04-06T02:37:26.443Z,1000.71
2019-04-06T02:38:26.404Z,1000.72
2019-04-06T02:39:26.409Z,1000.73
2019-04-06T02:40:26.382Z,1000.76
2019-04-06T02:41:26.454Z,1000.81
2019-04-06T02:42:26.446Z,1000.80
2019-04-06T02:43:26.356Z,1000.86
2019-04-06T02:44:26.350Z,1000.84
2019-04-06T02:45:26.331Z,1000.83
2019-04-06T02:46:26.341Z,1000.79
2019-04-06T02:47:26.438Z,1000.82
2019-04-06T02:48:26.302Z,1000.75
2019-04-06T02:49:26.305Z,1000.79
2019-04-06T02:50:26.281Z,1000.80
2019-04-06T02:51:26.288Z,1000.80
2019-04-06T02:52:26.259Z,1000.83
2019-04-06T02:53:26.247Z,1000.79
2019-04-06T02:54:26.366Z,1000.82
2019-04-06T02:55:26.229Z,1000.79
2019-04-06T02:56:26.238Z,1000.83
2019-04-06T02:57:26.201Z,1000.80
2019-04-06T02:58:26.200Z,1000.83
2019-04-06T02:59:26.182Z,1000.77
2019-04-06T03:00:26.172Z,1000.76
2019-04-06T03:01:26.214Z,1000.80
2019-04-06T03:02:26.176Z,1000.76
2019-04-06T03:03:26.177Z,1000.77
2019-04-06T03:04:26.130Z,1000.77
2019-04-06T03:05:26.316Z,1000.77
2019-04-06T03:06:26.111Z,1000.78
2019-04-06T03:07:26.112Z,1000.74
2019-04-06T03:08:26.095Z,1000.80
2019-04-06T03:09:26.086Z,1000.74
2019-04-06T03:10:26.085Z,1000.76
2019-04-06T03:11:26.137Z,1000.74
2019-04-06T03:12:26.076Z,1000.75
2019-04-06T03:13:26.034Z,1000.81
2019-04-06T03:14:26.176Z,1000.78
2019-04-06T03:15:26.018Z,1000.78
2019-04-06T03:16:25.998Z,1000.81
2019-04-06T03:17:26.007Z,1000.83
2019-04-06T03:18:25.977Z,1000.80
2019-04-06T03:19:25.973Z,1000.75
2019-04-06T03:20:25.958Z,1000.77
2019-04-06T03:21:26.191Z,1000.81
2019-04-06T03:22:25.954Z,1000.83
2019-04-06T03:23:25.935Z,1000.82
2019-04-06T03:24:25.913Z,1000.78
2019-04-06T03:25:25.911Z,1000.80
2019-04-06T03:26:25.934Z,1000.77
2019-04-06T03:27:25.919Z,1000.82
2019-04-06T03:28:26.217Z,1000.76
2019-04-06T03:29:25.871Z,1000.76
2019-04-06T03:30:25.863Z,1000.75
2019-04-06T03:31:27.615Z,1000.75
2019-04-06T03:32:25.971Z,1000.76
2019-04-06T03:33:25.819Z,1000.81
2019-04-06T03:34:25.835Z,1000.80
2019-04-06T03:35:25.798Z,1000.73
2019-04-06T03:36:25.786Z,1000.79
2019-04-06T03:37:25.818Z,1000.82
2019-04-06T03:38:25.928Z,1000.79
2019-04-06T03:39:25.810Z,1000.76
2019-04-06T03:40:25.751Z,1000.80
2019-04-06T03:41:25.736Z,1000.79
2019-04-06T03:42:25.761Z,1000.81
2019-04-06T03:43:25.714Z,1000.76
2019-04-06T03:44:25.699Z,1000.78
2019-04-06T03:45:25.686Z,1000.80
2019-04-06T03:46:25.868Z,1000.86
2019-04-06T03:47:25.698Z,1000.82
2019-04-06T03:48:25.678Z,1000.86
2019-04-06T03:49:25.654Z,1000.85
2019-04-06T03:50:25.636Z,1000.85
2019-04-06T03:51:25.630Z,1000.88
2019-04-06T03:52:25.658Z,1000.85
2019-04-06T03:53:25.611Z,1000.83
2019-04-06T03:54:25.595Z,1000.86
2019-04-06T03:55:25.580Z,1000.86
2019-04-06T03:56:25.574Z,1000.87
2019-04-06T03:57:25.586Z,1000.87
2019-04-06T03:58:25.547Z,1000.81
2019-04-06T03:59:25.538Z,1000.85
2019-04-06T04:00:25.527Z,1000.83
2019-04-06T04:01:25.514Z,1000.85
2019-04-06T04:02:25.532Z,1000.85
2019-04-06T04:03:25.498Z,1000.90
2019-04-06T04:04:25.509Z,1000.87
2019-04-06T04:05:25.486Z,1000.87
2019-04-06T04:06:25.461Z,1000.83
2019-04-06T04:07:25.709Z,1000.89
2019-04-06T04:08:25.461Z,1000.76
2019-04-06T04:09:25.455Z,1000.81
2019-04-06T04:10:25.454Z,1000.85
2019-04-06T04:11:25.410Z,1000.80
2019-04-06T04:12:25.398Z,1000.84
2019-04-06T04:13:25.426Z,1000.74
2019-04-06T04:14:25.380Z,1000.77
2019-04-06T04:15:25.372Z,1000.73
2019-04-06T04:16:25.368Z,1000.70
2019-04-06T04:17:25.344Z,1000.73
2019-04-06T04:18:25.376Z,1000.72
2019-04-06T04:19:25.473Z,1000.72
2019-04-06T04:20:25.311Z,1000.72
2019-04-06T04:21:25.305Z,1000.75
2019-04-06T04:22:25.295Z,1000.80
2019-04-06T04:23:25.335Z,1000.75
2019-04-06T04:24:25.269Z,1000.74
2019-04-06T04:25:25.261Z,1000.73
2019-04-06T04:26:25.251Z,1000.72
2019-04-06T04:27:29.858Z,1000.71
2019-04-06T04:28:26.272Z,1000.73
2019-04-06T04:29:25.219Z,1000.71
2019-04-06T04:30:32.570Z,1000.74
2019-04-06T04:31:26.192Z,1000.72
2019-04-06T04:32:25.183Z,1000.76
2019-04-06T04:33:25.220Z,1000.76
2019-04-06T04:34:25.178Z,1000.76
2019-04-06T04:35:25.186Z,1000.78
2019-04-06T04:36:25.153Z,1000.79
2019-04-06T04:37:25.275Z,1000.79
2019-04-06T04:38:25.132Z,1000.78
2019-04-06T04:39:25.143Z,1000.83
2019-04-06T04:40:25.106Z,1000.78
2019-04-06T04:41:25.124Z,1000.82
2019-04-06T04:42:25.105Z,1000.81
2019-04-06T04:43:25.086Z,1000.80
2019-04-06T04:44:25.150Z,1000.81
2019-04-06T04:45:25.057Z,1000.86
2019-04-06T04:46:25.210Z,1000.83
2019-04-06T04:47:25.066Z,1000.81
2019-04-06T04:48:25.020Z,1000.85
2019-04-06T04:49:25.034Z,1000.82
2019-04-06T04:50:24.999Z,1000.86
2019-04-06T04:51:24.980Z,1000.88
2019-04-06T04:52:24.969Z,1000.85
2019-04-06T04:53:24.990Z,1000.86
2019-04-06T04:54:24.948Z,1000.93
2019-04-06T04:55:24.946Z,1000.92
2019-04-06T04:56:24.939Z,1000.91
2019-04-06T04:57:24.925Z,1000.93
2019-04-06T04:58:24.953Z,1000.94
2019-04-06T04:59:24.897Z,1000.90
2019-04-06T05:00:24.884Z,1000.96
2019-04-06T05:01:24.939Z,1000.91
2019-04-06T05:02:24.862Z,1000.92
2019-04-06T05:03:24.863Z,1000.98
2019-04-06T05:04:24.866Z,1000.94
2019-04-06T05:05:24.835Z,1000.97
2019-04-06T05:06:24.825Z,1000.96
2019-04-06T05:07:25.000Z,1000.97
2019-04-06T05:08:24.904Z,1000.97
2019-04-06T05:09:24.812Z,1000.99
2019-04-06T05:10:24.777Z,1000.95
2019-04-06T05:11:24.771Z,1000.99
2019-04-06T05:12:24.754Z,1000.96
2019-04-06T05:13:24.747Z,1001.03
2019-04-06T05:14:25.476Z,1001.02
2019-04-06T05:15:24.731Z,1001.03
2019-04-06T05:16:24.715Z,1001.01
2019-04-06T05:17:24.711Z,1001.01
2019-04-06T05:18:24.693Z,1001.04
2019-04-06T05:19:24.704Z,1001.05
2019-04-06T05:20:24.739Z,1001.09
2019-04-06T05:21:24.665Z,1001.09
2019-04-06T05:22:24.726Z,1001.12
2019-04-06T05:23:24.653Z,1001.16
2019-04-06T05:24:24.629Z,1001.15
2019-04-06T05:25:24.634Z,1001.11
2019-04-06T05:26:24.611Z,1001.12
2019-04-06T05:27:24.762Z,1001.15
2019-04-06T05:28:24.645Z,1001.13
2019-04-06T05:29:24.655Z,1001.15
2019-04-06T05:30:24.583Z,1001.17
2019-04-06T05:31:24.557Z,1001.17
2019-04-06T05:32:24.542Z,1001.18
2019-04-06T05:33:24.708Z,1001.24
2019-04-06T05:34:24.602Z,1001.24
2019-04-06T05:35:24.530Z,1001.20
2019-04-06T05:36:24.516Z,1001.24
2019-04-06T05:37:24.609Z,1001.28
2019-04-06T05:38:24.485Z,1001.24
2019-04-06T05:39:24.499Z,1001.28
2019-04-06T05:40:24.476Z,1001.30
2019-04-06T05:41:24.506Z,1001.23
2019-04-06T05:42:24.435Z,1001.21
2019-04-06T05:43:24.602Z,1001.26
2019-04-06T05:44:24.492Z,1001.25
2019-04-06T05:45:24.432Z,1001.23
2019-04-06T05:46:24.395Z,1001.28
2019-04-06T05:47:24.393Z,1001.30
2019-04-06T05:48:24.430Z,1001.36
2019-04-06T05:49:24.361Z,1001.33
2019-04-06T05:50:24.394Z,1001.33
2019-04-06T05:51:24.339Z,1001.35
2019-04-06T05:52:24.332Z,1001.39
2019-04-06T05:53:24.420Z,1001.36
2019-04-06T05:54:24.332Z,1001.46
2019-04-06T05:55:24.793Z,1001.44
2019-04-06T05:56:24.355Z,1001.47
2019-04-06T05:57:24.300Z,1001.52
2019-04-06T05:58:24.288Z,1001.43
2019-04-06T05:59:24.290Z,1001.45
2019-04-06T06:00:24.252Z,1001.43
2019-04-06T06:01:24.256Z,1001.47
2019-04-06T06:02:24.243Z,1001.48
2019-04-06T06:03:24.216Z,1001.46
2019-04-06T06:04:24.201Z,1001.45
2019-04-06T06:05:24.199Z,1001.47
2019-04-06T06:06:24.212Z,1001.42
2019-04-06T06:07:24.197Z,1001.50
2019-04-06T06:08:24.160Z,1001.45
2019-04-06T06:09:24.149Z,1001.49
2019-04-06T06:10:24.326Z,1001.54
2019-04-06T06:11:24.128Z,1001.51
2019-04-06T06:12:24.132Z,1001.54
2019-04-06T06:13:24.164Z,1001.51
2019-04-06T06:14:24.099Z,1001.49
2019-04-06T06:15:24.218Z,1001.52
2019-04-06T06:16:24.134Z,1001.51
2019-04-06T06:17:24.074Z,1001.53
2019-04-06T06:18:27.286Z,1001.56
2019-04-06T06:19:24.060Z,1001.58
2019-04-06T06:20:24.032Z,1001.58
2019-04-06T06:21:24.113Z,1001.58
2019-04-06T06:22:24.043Z,1001.61
2019-04-06T06:23:24.062Z,1001.60
2019-04-06T06:24:24.030Z,1001.57
2019-04-06T06:25:24.039Z,1001.59
2019-04-06T06:26:23.966Z,1001.59
2019-04-06T06:27:23.958Z,1001.55
2019-04-06T06:28:23.950Z,1001.58
2019-04-06T06:29:23.933Z,1001.55
2019-04-06T06:30:23.955Z,1001.58
2019-04-06T06:31:23.910Z,1001.61
2019-04-06T06:32:23.905Z,1001.57
2019-04-06T06:33:23.890Z,1001.60
2019-04-06T06:34:23.879Z,1001.63
2019-04-06T06:35:23.910Z,1001.59
2019-04-06T06:36:23.875Z,1001.63
2019-04-06T06:37:23.852Z,1001.62
2019-04-06T06:38:23.842Z,1001.58
2019-04-06T06:39:23.830Z,1001.66
2019-04-06T06:40:23.819Z,1001.61
2019-04-06T06:41:23.828Z,1001.62
2019-04-06T06:42:23.925Z,1001.62
2019-04-06T06:43:23.784Z,1001.62
2019-04-06T06:44:23.773Z,1001.62
2019-04-06T06:45:23.802Z,1001.63
2019-04-06T06:46:23.758Z,1001.66
2019-04-06T06:47:23.764Z,1001.60
2019-04-06T06:48:23.729Z,1001.60
2019-04-06T06:49:23.758Z,1001.60
2019-04-06T06:50:23.708Z,1001.56
2019-04-06T06:51:23.703Z,1001.63
2019-04-06T06:52:23.685Z,1001.64
2019-04-06T06:53:23.700Z,1001.59
2019-04-06T06:54:23.664Z,1001.62
2019-04-06T06:55:23.658Z,1001.62
2019-04-06T06:56:23.642Z,1001.61
2019-04-06T06:57:23.836Z,1001.62
2019-04-06T06:58:25.552Z,1001.63
2019-04-06T06:59:23.615Z,1001.60
2019-04-06T07:00:23.762Z,1001.53
2019-04-06T07:01:23.590Z,1001.58
2019-04-06T07:02:23.578Z,1001.59
2019-04-06T07:03:23.587Z,1001.55
2019-04-06T07:04:23.563Z,1001.53
2019-04-06T07:05:23.640Z,1001.54
2019-04-06T07:06:23.705Z,1001.54
2019-04-06T07:07:23.525Z,1001.53
2019-04-06T07:08:23.556Z,1001.58
2019-04-06T07:09:23.503Z,1001.52
2019-04-06T07:10:23.502Z,1001.54
2019-04-06T07:11:23.502Z,1001.48
2019-04-06T07:12:23.470Z,1001.55
2019-04-06T07:13:23.470Z,1001.52
2019-04-06T07:14:23.475Z,1001.53
2019-04-06T07:15:23.480Z,1001.56
2019-04-06T07:16:23.434Z,1001.49
2019-04-06T07:17:23.426Z,1001.48
2019-04-06T07:18:23.421Z,1001.48
2019-04-06T07:19:23.398Z,1001.49
2019-04-06T07:20:23.637Z,1001.50
2019-04-06T07:21:23.445Z,1001.48
2019-04-06T07:22:23.366Z,1001.51
2019-04-06T07:23:23.356Z,1001.47
2019-04-06T07:24:23.342Z,1001.48
2019-04-06T07:25:23.393Z,1001.47
2019-04-06T07:26:23.353Z,1001.49
2019-04-06T07:27:23.551Z,1001.45
2019-04-06T07:28:23.348Z,1001.39
2019-04-06T07:29:23.471Z,1001.37
2019-04-06T07:30:23.278Z,1001.42
2019-04-06T07:31:23.291Z,1001.35
2019-04-06T07:32:23.258Z,1001.34
2019-04-06T07:33:23.247Z,1001.35
2019-04-06T07:34:23.238Z,1001.34
2019-04-06T07:35:23.225Z,1001.37
2019-04-06T07:36:23.310Z,1001.37
2019-04-06T07:37:23.237Z,1001.37
2019-04-06T07:38:23.194Z,1001.37
2019-04-06T07:39:23.333Z,1001.47
2019-04-06T07:40:23.176Z,1001.41
2019-04-06T07:41:23.160Z,1001.41
2019-04-06T07:42:23.150Z,1001.29
2019-04-06T07:43:23.157Z,1001.37
2019-04-06T07:44:23.200Z,1001.40
2019-04-06T07:45:23.218Z,1001.42
2019-04-06T07:46:23.115Z,1001.45
2019-04-06T07:47:23.115Z,1001.43
2019-04-06T07:48:23.087Z,1001.37
2019-04-06T07:49:23.074Z,1001.41
2019-04-06T07:50:23.065Z,1001.37
2019-04-06T07:51:23.064Z,1001.43
2019-04-06T07:52:23.065Z,1001.43
2019-04-06T07:53:23.030Z,1001.43
2019-04-06T07:54:23.022Z,1001.36
2019-04-06T07:55:23.019Z,1001.51
2019-04-06T07:56:23.000Z,1001.44
2019-04-06T07:57:23.011Z,1001.44
2019-04-06T07:58:23.002Z,1001.39
2019-04-06T07:59:22.966Z,1001.38
2019-04-06T08:00:22.956Z,1001.37
2019-04-06T08:01:22.954Z,1001.35
2019-04-06T08:02:22.979Z,1001.40
2019-04-06T08:03:22.949Z,1001.41
2019-04-06T08:04:22.917Z,1001.40
2019-04-06T08:05:22.912Z,1001.33
2019-04-06T08:06:22.911Z,1001.34
2019-04-06T08:07:22.888Z,1001.32
2019-04-06T08:08:22.869Z,1001.36
2019-04-06T08:09:22.882Z,1001.34
2019-04-06T08:10:22.846Z,1001.36
2019-04-06T08:11:22.839Z,1001.33
2019-04-06T08:12:22.852Z,1001.35
2019-04-06T08:13:22.823Z,1001.33
2019-04-06T08:14:22.833Z,1001.34
2019-04-06T08:15:22.796Z,1001.31
2019-04-06T08:16:22.786Z,1001.33
2019-04-06T08:17:22.775Z,1001.32
2019-04-06T08:18:22.768Z,1001.31
2019-04-06T08:19:22.757Z,1001.30
2019-04-06T08:20:22.900Z,1001.31
2019-04-06T08:21:22.727Z,1001.30
2019-04-06T08:22:22.731Z,1001.31
2019-04-06T08:23:22.714Z,1001.33
2019-04-06T08:24:22.695Z,1001.32
2019-04-06T08:25:22.709Z,1001.35
2019-04-06T08:26:22.834Z,1001.31
2019-04-06T08:27:22.664Z,1001.37
2019-04-06T08:28:22.656Z,1001.36
2019-04-06T08:29:22.648Z,1001.33
2019-04-06T08:30:22.651Z,1001.34
2019-04-06T08:31:22.646Z,1001.28
2019-04-06T08:32:22.613Z,1001.35
2019-04-06T08:33:22.599Z,1001.32
2019-04-06T08:34:22.589Z,1001.36
2019-04-06T08:35:26.169Z,1001.33
2019-04-06T08:36:22.601Z,1001.38
2019-04-06T08:37:22.556Z,1001.42
2019-04-06T08:38:22.546Z,1001.37
2019-04-06T08:39:22.534Z,1001.41
2019-04-06T08:40:22.526Z,1001.35
2019-04-06T08:41:22.555Z,1001.36
2019-04-06T08:42:22.514Z,1001.35
2019-04-06T08:43:22.493Z,1001.38
2019-04-06T08:44:22.514Z,1001.38
2019-04-06T08:45:22.597Z,1001.35
2019-04-06T08:46:22.465Z,1001.39
2019-04-06T08:47:22.467Z,1001.35
2019-04-06T08:48:22.439Z,1001.35
2019-04-06T08:49:22.630Z,1001.36
2019-04-06T08:50:22.602Z,1001.36
2019-04-06T08:51:22.408Z,1001.34
2019-04-06T08:52:22.436Z,1001.31
2019-04-06T08:53:22.386Z,1001.33
2019-04-06T08:54:22.377Z,1001.35
2019-04-06T08:55:22.371Z,1001.33
2019-04-06T08:56:22.351Z,1001.38
2019-04-06T08:57:23.279Z,1001.37
2019-04-06T08:58:22.349Z,1001.39
2019-04-06T08:59:22.532Z,1001.37
2019-04-06T09:00:22.322Z,1001.34
2019-04-06T09:01:22.303Z,1001.37
2019-04-06T09:02:22.286Z,1001.30
2019-04-06T09:03:22.296Z,1001.31
2019-04-06T09:04:22.322Z,1001.29
2019-04-06T09:05:22.482Z,1001.32
2019-04-06T09:06:22.245Z,1001.33
2019-04-06T09:07:22.240Z,1001.30
2019-04-06T09:08:22.276Z,1001.29
2019-04-06T09:09:22.217Z,1001.29
2019-04-06T09:10:22.224Z,1001.29
2019-04-06T09:11:22.211Z,1001.31
2019-04-06T09:12:22.179Z,1001.28
2019-04-06T09:13:22.210Z,1001.24
2019-04-06T09:14:22.186Z,1001.24
2019-04-06T09:15:22.150Z,1001.26
2019-04-06T09:16:22.140Z,1001.25
2019-04-06T09:17:22.138Z,1001.26
2019-04-06T09:18:22.120Z,1001.27
2019-04-06T09:19:22.121Z,1001.21
2019-04-06T09:20:22.094Z,1001.19
2019-04-06T09:21:22.852Z,1001.16
2019-04-06T09:22:22.092Z,1001.16
2019-04-06T09:23:22.116Z,1001.18
2019-04-06T09:24:22.338Z,1001.18
2019-04-06T09:25:22.039Z,1001.18
2019-04-06T09:26:22.162Z,1001.14
2019-04-06T09:27:22.033Z,1001.16
2019-04-06T09:28:22.020Z,1001.12
2019-04-06T09:29:24.281Z,1001.15
2019-04-06T09:30:22.000Z,1001.11
2019-04-06T09:31:22.213Z,1001.13
2019-04-06T09:32:22.258Z,1001.12
2019-04-06T09:33:22.082Z,1001.11
2019-04-06T09:34:22.059Z,1001.12
2019-04-06T09:35:21.952Z,1001.13
2019-04-06T09:36:21.942Z,1001.16
2019-04-06T09:37:22.170Z,1001.11
2019-04-06T09:38:22.097Z,1001.12
2019-04-06T09:39:21.912Z,1001.16
2019-04-06T09:40:21.910Z,1001.08
2019-04-06T09:41:21.871Z,1001.08
2019-04-06T09:42:21.871Z,1001.11
2019-04-06T09:43:21.847Z,1001.06
2019-04-06T09:44:21.841Z,1001.09
2019-04-06T09:45:21.839Z,1001.07
2019-04-06T09:46:21.831Z,1000.99
2019-04-06T09:47:21.828Z,1000.96
2019-04-06T09:48:21.793Z,1000.99
2019-04-06T09:49:21.791Z,1000.97
2019-04-06T09:50:21.789Z,1000.90
2019-04-06T09:51:21.788Z,1000.94
2019-04-06T09:52:21.752Z,1000.95
2019-04-06T09:53:21.762Z,1000.93
2019-04-06T09:54:21.732Z,1000.92
2019-04-06T09:55:21.974Z,1000.94
2019-04-06T09:56:21.724Z,1000.94
2019-04-06T09:57:21.721Z,1000.90
2019-04-06T09:58:21.684Z,1000.92
2019-04-06T09:59:34.273Z,1000.94
2019-04-06T10:00:22.688Z,1000.93
2019-04-06T10:01:21.670Z,1000.89
2019-04-06T10:02:21.701Z,1000.94
2019-04-06T10:03:21.638Z,1000.89
2019-04-06T10:04:21.642Z,1000.93
2019-04-06T10:05:21.813Z,1000.86
2019-04-06T10:06:21.601Z,1000.88
2019-04-06T10:07:21.597Z,1000.93
2019-04-06T10:08:21.602Z,1000.86
2019-04-06T10:09:21.640Z,1000.85
2019-04-06T10:10:21.724Z,1000.85
2019-04-06T10:11:21.550Z,1000.87
2019-04-06T10:12:21.536Z,1000.93
2019-04-06T10:13:21.552Z,1000.90
2019-04-06T10:14:21.514Z,1000.88
2019-04-06T10:15:21.559Z,1000.85
2019-04-06T10:16:21.497Z,1000.78
2019-04-06T10:17:21.488Z,1000.79
2019-04-06T10:18:21.549Z,1000.89
2019-04-06T10:19:21.464Z,1000.81
2019-04-06T10:20:21.729Z,1000.85
2019-04-06T10:21:21.729Z,1000.87
2019-04-06T10:22:21.451Z,1000.82
2019-04-06T10:23:21.445Z,1000.82
2019-04-06T10:24:21.430Z,1000.78
2019-04-06T10:25:21.405Z,1000.86
2019-04-06T10:26:21.384Z,1000.84
2019-04-06T10:27:21.375Z,1000.82
2019-04-06T10:28:21.362Z,1000.83
2019-04-06T10:29:21.416Z,1000.88
2019-04-06T10:30:21.339Z,1000.85
2019-04-06T10:31:21.330Z,1000.86
2019-04-06T10:32:21.324Z,1000.86
2019-04-06T10:33:21.452Z,1000.86
2019-04-06T10:34:21.327Z,1000.84
2019-04-06T10:35:21.288Z,1000.87
2019-04-06T10:36:21.275Z,1000.79
2019-04-06T10:37:21.424Z,1000.86
2019-04-06T10:38:21.433Z,1000.89
2019-04-06T10:39:21.261Z,1000.86
2019-04-06T10:40:21.293Z,1000.81
2019-04-06T10:41:21.227Z,1000.79
2019-04-06T10:42:21.221Z,1000.82
2019-04-06T10:43:21.203Z,1000.77
2019-04-06T10:45:40.789Z,1000.73
2019-04-06T10:46:40.804Z,1000.72
2019-04-06T10:47:40.752Z,1000.78
2019-04-06T10:48:40.741Z,1000.74
2019-04-06T10:49:40.733Z,1000.73
2019-04-06T10:50:40.985Z,1000.74
2019-04-06T10:51:41.357Z,1000.70
2019-04-06T10:52:40.704Z,1000.71
2019-04-06T10:53:40.751Z,1000.71
2019-04-06T10:54:41.004Z,1000.67
2019-04-06T10:55:40.668Z,1000.68
2019-04-06T10:56:41.096Z,1000.72
2019-04-06T10:57:40.659Z,1000.71
2019-04-06T10:58:40.640Z,1000.74
2019-04-06T10:59:40.638Z,1000.75
2019-04-06T11:00:40.912Z,1000.74
2019-04-06T11:01:40.814Z,1000.69
2019-04-06T11:02:40.595Z,1000.70
2019-04-06T11:03:40.608Z,1000.66
2019-04-06T11:04:40.767Z,1000.60
2019-04-06T11:05:40.866Z,1000.59
2019-04-06T11:06:40.577Z,1000.62
2019-04-06T11:07:40.543Z,1000.62
2019-04-06T11:08:40.533Z,1000.65
2019-04-06T11:09:40.522Z,1000.58
2019-04-06T11:10:40.590Z,1000.65
2019-04-06T11:11:40.528Z,1000.61
2019-04-06T11:12:40.494Z,1000.61
2019-04-06T11:13:40.674Z,1000.60
2019-04-06T11:14:40.484Z,1000.59
2019-04-06T11:15:40.461Z,1000.58
2019-04-06T11:16:40.842Z,1000.59
2019-04-06T11:17:40.576Z,1000.52
2019-04-06T11:18:40.931Z,1000.54
2019-04-06T11:19:40.415Z,1000.51
2019-04-06T11:20:40.409Z,1000.47
2019-04-06T11:21:40.407Z,1000.50
2019-04-06T11:22:40.388Z,1000.54
2019-04-06T11:23:40.431Z,1000.53
2019-04-06T11:24:40.587Z,1000.52
2019-04-06T11:25:40.354Z,1000.54
2019-04-06T11:26:41.077Z,1000.50
2019-04-06T11:27:42.870Z,1000.52
2019-04-06T11:28:41.609Z,1000.49
2019-04-06T11:29:40.306Z,1000.47
2019-04-06T11:30:40.325Z,1000.49
2019-04-06T11:31:40.409Z,1000.41
2019-04-06T11:32:40.295Z,1000.40
2019-04-06T11:33:40.266Z,1000.44
2019-04-06T11:34:40.252Z,1000.43
2019-04-06T11:35:40.635Z,1000.41
2019-04-06T11:36:40.239Z,1000.41
2019-04-06T11:37:40.241Z,1000.34
2019-04-06T11:38:40.211Z,1000.41
2019-04-06T11:39:40.204Z,1000.41
2019-04-06T11:40:40.185Z,1000.37
2019-04-06T11:41:40.195Z,1000.38
2019-04-06T11:42:40.432Z,1000.33
2019-04-06T11:43:40.153Z,1000.33
2019-04-06T11:44:40.144Z,1000.36
2019-04-06T11:45:40.176Z,1000.29
2019-04-06T11:46:40.202Z,1000.29
2019-04-06T11:47:40.254Z,1000.24
2019-04-06T11:48:40.099Z,1000.33
2019-04-06T11:49:40.098Z,1000.29
2019-04-06T11:50:40.079Z,1000.31
2019-04-06T11:51:40.067Z,1000.32
2019-04-06T11:52:40.058Z,1000.30
2019-04-06T11:53:40.064Z,1000.21
2019-04-06T11:54:40.046Z,1000.16
2019-04-06T11:55:40.026Z,1000.26
2019-04-06T11:56:40.013Z,1000.23
2019-04-06T11:57:40.019Z,1000.26
2019-04-06T11:58:40.030Z,1000.22
2019-04-06T11:59:40.254Z,1000.24
2019-04-06T12:00:39.971Z,1000.25
2019-04-06T12:01:39.959Z,1000.20
2019-04-06T12:02:39.950Z,1000.24
2019-04-06T12:03:39.965Z,1000.25
2019-04-06T12:04:39.930Z,1000.23
2019-04-06T12:05:40.232Z,1000.21
2019-04-06T12:06:39.908Z,1000.27